createdAt,value
2019-02-25T00:00:51.854Z,103528.51
2019-02-25T00:03:29.482Z,103520.78
2019-02-25T00:06:03.834Z,103524.52
2019-02-25T00:08:34.203Z,103527.30
2019-02-25T00:11:04.539Z,103517.27
2019-02-25T00:13:44.244Z,103521.55
2019-02-25T00:16:25.823Z,103518.72
2019-02-25T00:18:56.149Z,103520.48
2019-02-25T00:21:27.451Z,103511.33
2019-02-25T00:24:04.802Z,103505.48
2019-02-25T00:26:37.091Z,103501.83
2019-02-25T00:29:07.423Z,103495.90
2019-02-25T00:31:37.891Z,103494.50
2019-02-25T00:34:19.887Z,103499.66
2019-02-25T00:36:53.862Z,103497.31
2019-02-25T00:39:24.371Z,103491.20
2019-02-25T00:42:00.460Z,103494.64
2019-02-25T00:44:31.016Z,103486.18
2019-02-25T00:47:01.317Z,103498.83
2019-02-25T00:49:32.659Z,103502.50
2019-02-25T00:52:09.278Z,103493.80
2019-02-25T00:54:39.591Z,103497.30
2019-02-25T00:57:13.553Z,103494.34
2019-02-25T00:59:46.890Z,103502.34
2019-02-25T01:02:17.620Z,103505.48
2019-02-25T01:04:47.911Z,103505.48
2019-02-25T01:07:24.236Z,103506.52
2019-02-25T01:09:54.764Z,103507.59
2019-02-25T01:12:25.267Z,103509.77
2019-02-25T01:14:58.843Z,103496.47
2019-02-25T01:17:29.756Z,103510.86
2019-02-25T01:20:00.252Z,103501.44
2019-02-25T01:22:30.660Z,103511.23
2019-02-25T01:25:00.954Z,103512.07
2019-02-25T01:27:38.599Z,103516.84
2019-02-25T01:30:12.955Z,103506.98
2019-02-25T01:32:43.560Z,103513.16
2019-02-25T01:35:14.262Z,103514.84
2019-02-25T01:37:44.924Z,103501.45
2019-02-25T01:40:15.215Z,103499.08
2019-02-25T01:42:45.795Z,103495.33
2019-02-25T01:45:24.046Z,103494.00
2019-02-25T01:47:53.055Z,103487.78
2019-02-25T01:50:23.326Z,103487.34
2019-02-25T01:52:55.307Z,103482.04
2019-02-25T01:55:25.664Z,103478.33
2019-02-25T01:57:55.996Z,103481.14
2019-02-25T02:00:27.475Z,103476.89
2019-02-25T02:02:58.093Z,103477.63
2019-02-25T02:05:29.670Z,103474.27
2019-02-25T02:08:04.439Z,103471.43
2019-02-25T02:10:34.711Z,103470.97
2019-02-25T02:13:13.904Z,103469.50
2019-02-25T02:15:39.049Z,103469.57
2019-02-25T02:18:09.322Z,103470.48
2019-02-25T02:20:41.709Z,103468.02
2019-02-25T02:23:22.532Z,103468.38
2019-02-25T02:25:52.968Z,103472.11
2019-02-25T02:28:23.234Z,103478.22
2019-02-25T02:30:54.978Z,103474.09
2019-02-25T02:33:25.344Z,103478.42
2019-02-25T02:35:57.453Z,103474.60
2019-02-25T02:38:30.364Z,103470.44
2019-02-25T02:41:00.660Z,103473.05
2019-02-25T02:43:31.130Z,103478.48
2019-02-25T02:46:25.875Z,103478.77
2019-02-25T02:49:02.086Z,103484.90
2019-02-25T02:51:32.300Z,103487.55
2019-02-25T02:54:06.940Z,103483.49
2019-02-25T02:56:39.952Z,103481.23
2019-02-25T02:59:10.471Z,103481.69
2019-02-25T03:01:42.433Z,103469.07
2019-02-25T03:04:15.444Z,103470.70
2019-02-25T03:06:45.755Z,103470.70
2019-02-25T03:09:19.481Z,103485.83
2019-02-25T03:12:01.557Z,103485.83
2019-02-25T03:14:32.831Z,103488.86
2019-02-25T03:17:03.392Z,103493.35
2019-02-25T03:19:45.010Z,103492.77
2019-02-25T03:22:07.452Z,103495.17
2019-02-25T03:24:38.050Z,103490.01
2019-02-25T03:27:11.369Z,103489.69
2019-02-25T03:29:41.910Z,103487.56
2019-02-25T03:32:13.650Z,103485.48
2019-02-25T03:34:46.719Z,103488.95
2019-02-25T03:37:20.055Z,103486.52
2019-02-25T03:39:50.364Z,103481.03
2019-02-25T03:42:27.609Z,103485.05
2019-02-25T03:45:01.603Z,103486.00
2019-02-25T03:47:34.338Z,103490.56
2019-02-25T03:50:20.128Z,103487.20
2019-02-25T03:52:50.434Z,103485.25
2019-02-25T03:55:19.440Z,103479.11
2019-02-25T03:57:52.448Z,103473.55
2019-02-25T04:00:27.584Z,103468.62
2019-02-25T04:02:57.931Z,103464.91
2019-02-25T04:05:30.248Z,103475.80
2019-02-25T04:08:00.848Z,103476.48
2019-02-25T04:10:31.432Z,103474.59
2019-02-25T04:13:06.668Z,103486.84
2019-02-25T04:15:40.166Z,103482.42
2019-02-25T04:18:12.427Z,103488.53
2019-02-25T04:20:44.136Z,103488.84
2019-02-25T04:23:14.762Z,103481.03
2019-02-25T04:25:45.321Z,103485.55
2019-02-25T04:28:18.639Z,103490.20
2019-02-25T04:30:49.258Z,103488.47
2019-02-25T04:33:19.912Z,103479.93
2019-02-25T04:35:51.862Z,103489.47
2019-02-25T04:38:22.783Z,103492.62
2019-02-25T04:40:54.273Z,103481.50
2019-02-25T04:43:32.257Z,103478.83
2019-02-25T04:46:02.659Z,103480.13
2019-02-25T04:48:33.289Z,103479.48
2019-02-25T04:51:03.591Z,103486.17
2019-02-25T04:53:37.913Z,103487.66
2019-02-25T04:56:08.183Z,103485.20
2019-02-25T04:58:38.923Z,103481.63
2019-02-25T05:01:11.355Z,103483.94
2019-02-25T05:03:41.898Z,103484.69
2019-02-25T05:06:12.399Z,103481.41
2019-02-25T05:08:46.639Z,103477.35
2019-02-25T05:11:16.888Z,103484.37
2019-02-25T05:13:49.926Z,103477.17
2019-02-25T05:16:25.747Z,103469.72
2019-02-25T05:18:56.185Z,103469.50
2019-02-25T05:21:27.806Z,103480.02
2019-02-25T05:24:14.262Z,103472.47
2019-02-25T05:26:47.661Z,103472.47
2019-02-25T05:29:20.594Z,103487.44
2019-02-25T05:31:51.290Z,103490.41
2019-02-25T05:34:50.637Z,103487.55
2019-02-25T05:36:55.417Z,103487.22
2019-02-25T05:39:26.122Z,103486.28
2019-02-25T05:41:59.340Z,103478.80
2019-02-25T05:44:29.949Z,103482.70
2019-02-25T05:47:01.804Z,103483.64
2019-02-25T05:49:33.933Z,103467.91
2019-02-25T05:52:05.189Z,103472.58
2019-02-25T05:54:35.784Z,103468.88
2019-02-25T05:57:17.838Z,103461.93
2019-02-25T05:59:48.222Z,103458.55
2019-02-25T06:02:22.305Z,103457.83
2019-02-25T06:04:54.998Z,103459.37
2019-02-25T06:07:25.317Z,103466.52
2019-02-25T06:09:57.428Z,103466.06
2019-02-25T06:12:27.799Z,103470.80
2019-02-25T06:14:58.491Z,103470.08
2019-02-25T06:17:30.827Z,103473.34
2019-02-25T06:20:02.550Z,103474.60
2019-02-25T06:22:32.937Z,103481.88
2019-02-25T06:25:08.452Z,103495.48
2019-02-25T06:27:41.684Z,103498.49
2019-02-25T06:30:15.010Z,103509.70
2019-02-25T06:32:45.316Z,103508.98
2019-02-25T06:35:17.424Z,103509.96
2019-02-25T06:37:47.776Z,103515.60
2019-02-25T06:40:18.123Z,103516.33
2019-02-25T06:42:50.769Z,103513.07
2019-02-25T06:45:22.622Z,103511.59
2019-02-25T06:47:54.304Z,103507.39
2019-02-25T06:50:27.239Z,103513.86
2019-02-25T06:52:57.545Z,103515.34
2019-02-25T06:55:28.134Z,103508.44
2019-02-25T06:57:58.457Z,103509.05
2019-02-25T07:00:29.089Z,103503.18
2019-02-25T07:03:01.890Z,103510.16
2019-02-25T07:05:57.261Z,103507.64
2019-02-25T07:08:36.605Z,103507.01
2019-02-25T07:11:14.116Z,103505.62
2019-02-25T07:14:09.832Z,103497.28
2019-02-25T07:16:58.257Z,103497.28
2019-02-25T07:19:43.026Z,103500.55
2019-02-25T07:22:31.674Z,103501.98
2019-02-25T07:25:26.809Z,103504.23
2019-02-25T07:28:19.898Z,103494.20
2019-02-25T07:31:07.626Z,103492.72
2019-02-25T07:33:50.756Z,103492.01
2019-02-25T07:36:43.053Z,103490.70
2019-02-25T07:39:38.723Z,103496.39
2019-02-25T07:42:22.283Z,103501.74
2019-02-25T07:45:22.215Z,103499.74
2019-02-25T07:48:00.605Z,103508.33
2019-02-25T07:50:48.425Z,103517.31
2019-02-25T07:53:26.239Z,103518.51
2019-02-25T07:56:15.504Z,103517.91
2019-02-25T07:59:24.238Z,103526.45
2019-02-25T08:02:19.091Z,103531.09
2019-02-25T08:05:09.863Z,103530.16
2019-02-25T08:08:17.530Z,103533.52
2019-02-25T08:11:09.572Z,103539.92
2019-02-25T08:14:04.615Z,103538.16
2019-02-25T08:16:49.491Z,103545.50
2019-02-25T08:19:45.031Z,103549.16
2019-02-25T08:22:32.772Z,103528.14
2019-02-25T08:25:24.960Z,103501.81
2019-02-25T08:28:24.886Z,103483.58
2019-02-25T08:31:13.506Z,103479.12
2019-02-25T08:34:20.047Z,103487.40
2019-02-25T08:37:54.592Z,103487.40
2019-02-25T08:41:20.042Z,103499.38
2019-02-25T08:44:22.021Z,103503.23
2019-02-25T08:47:09.892Z,103494.17
2019-02-25T08:49:46.596Z,103480.45
2019-02-25T08:52:17.084Z,103480.27
2019-02-25T08:54:47.682Z,103481.16
2019-02-25T08:57:18.431Z,103483.36
2019-02-25T08:59:55.802Z,103487.53
2019-02-25T09:02:30.229Z,103491.05
2019-02-25T09:05:00.830Z,103490.75
2019-02-25T09:07:42.678Z,103488.62
2019-02-25T09:10:15.228Z,103494.63
2019-02-25T09:12:45.925Z,103496.41
2019-02-25T09:15:18.396Z,103483.75
2019-02-25T09:17:47.286Z,103485.27
2019-02-25T09:20:19.834Z,103484.98
2019-02-25T09:22:50.412Z,103488.96
2019-02-25T09:25:21.057Z,103481.00
2019-02-25T09:27:51.494Z,103489.40
2019-02-25T09:30:22.190Z,103491.81
2019-02-25T09:32:52.515Z,103491.47
2019-02-25T09:35:23.075Z,103494.06
2019-02-25T09:37:58.715Z,103493.25
2019-02-25T09:40:33.080Z,103502.91
2019-02-25T09:43:05.291Z,103500.30
2019-02-25T09:45:40.434Z,103494.36
2019-02-25T09:48:12.529Z,103494.36
2019-02-25T09:50:44.769Z,103503.98
2019-02-25T09:53:16.273Z,103505.23
2019-02-25T09:55:47.036Z,103500.39
2019-02-25T09:58:17.601Z,103490.83
2019-02-25T10:00:53.273Z,103490.83
2019-02-25T10:03:26.323Z,103499.40
2019-02-25T10:05:57.221Z,103493.41
2019-02-25T10:08:27.835Z,103481.75
2019-02-25T10:10:58.547Z,103481.75
2019-02-25T10:13:30.096Z,103480.73
2019-02-25T10:16:02.103Z,103479.44
2019-02-25T10:18:35.067Z,103475.39
2019-02-25T10:21:05.799Z,103486.50
2019-02-25T10:23:40.558Z,103478.94
2019-02-25T10:26:11.314Z,103477.43
2019-02-25T10:28:41.728Z,103471.26
2019-02-25T10:31:15.299Z,103471.00
2019-02-25T10:33:50.821Z,103471.00
2019-02-25T10:36:22.777Z,103478.20
2019-02-25T10:38:55.015Z,103463.63
2019-02-25T10:41:31.518Z,103468.45
2019-02-25T10:44:02.350Z,103472.81
2019-02-25T10:46:33.356Z,103474.61
2019-02-25T10:49:11.152Z,103465.59
2019-02-25T10:51:36.844Z,103474.25
2019-02-25T10:54:08.599Z,103478.47
2019-02-25T10:56:47.420Z,103496.64
2019-02-25T10:59:19.157Z,103503.55
2019-02-25T11:01:50.240Z,103506.38
2019-02-25T11:04:23.821Z,103506.38
2019-02-25T11:06:54.675Z,103505.40
2019-02-25T11:09:48.166Z,103505.38
2019-02-25T11:12:21.594Z,103505.38
2019-02-25T11:14:56.120Z,103493.57
2019-02-25T11:17:26.738Z,103491.77
2019-02-25T11:20:01.263Z,103489.45
2019-02-25T11:22:42.036Z,103487.45
2019-02-25T11:25:08.822Z,103483.38
2019-02-25T11:27:40.028Z,103483.23
2019-02-25T11:30:14.227Z,103477.68
2019-02-25T11:32:45.554Z,103476.66
2019-02-25T11:35:16.466Z,103477.72
2019-02-25T11:37:47.291Z,103479.26
2019-02-25T11:40:18.289Z,103472.45
2019-02-25T11:42:49.329Z,103467.89
2019-02-25T11:45:23.669Z,103460.03
2019-02-25T11:47:57.809Z,103463.73
2019-02-25T11:50:28.107Z,103460.89
2019-02-25T11:53:00.069Z,103455.72
2019-02-25T11:55:30.948Z,103458.45
2019-02-25T11:58:01.310Z,103460.24
2019-02-25T12:00:35.576Z,103456.97
2019-02-25T12:03:06.085Z,103446.41
2019-02-25T12:05:36.548Z,103451.48
2019-02-25T12:08:10.155Z,103454.72
2019-02-25T12:10:40.471Z,103451.33
2019-02-25T12:13:11.138Z,103457.81
2019-02-25T12:15:41.849Z,103447.77
2019-02-25T12:18:14.024Z,103443.87
2019-02-25T12:20:46.031Z,103433.42
2019-02-25T12:23:17.616Z,103435.22
2019-02-25T12:25:50.153Z,103428.23
2019-02-25T12:28:20.751Z,103416.19
2019-02-25T12:30:52.924Z,103407.70
2019-02-25T12:33:23.366Z,103398.38
2019-02-25T12:35:57.481Z,103392.67
2019-02-25T12:38:29.595Z,103389.24
2019-02-25T12:40:59.987Z,103383.54
2019-02-25T12:43:30.399Z,103362.31
2019-02-25T12:46:03.628Z,103362.31
2019-02-25T12:48:35.496Z,103348.95
2019-02-25T12:51:06.085Z,103342.26
2019-02-25T12:53:37.958Z,103328.27
2019-02-25T12:56:08.558Z,103327.28
2019-02-25T12:58:39.742Z,103325.09
2019-02-25T13:01:12.350Z,103310.55
2019-02-25T13:03:44.610Z,103299.95
2019-02-25T13:06:17.058Z,103297.48
2019-02-25T13:08:51.607Z,103290.64
2019-02-25T13:11:22.201Z,103281.33
2019-02-25T13:13:53.731Z,103278.05
2019-02-25T13:16:51.599Z,103280.80
2019-02-25T13:18:58.447Z,103277.52
2019-02-25T13:21:29.370Z,103270.67
2019-02-25T13:24:09.769Z,103265.08
2019-02-25T13:26:39.511Z,103269.09
2019-02-25T13:29:10.246Z,103270.08
2019-02-25T13:31:41.832Z,103276.11
2019-02-25T13:34:12.087Z,103279.16
2019-02-25T13:36:45.801Z,103264.84
2019-02-25T13:39:23.450Z,103271.73
2019-02-25T13:41:51.994Z,103264.89
2019-02-25T13:44:26.333Z,103267.60
2019-02-25T13:46:59.670Z,103261.64
2019-02-25T13:49:30.283Z,103260.02
2019-02-25T13:52:01.722Z,103253.21
2019-02-25T13:54:37.954Z,103246.80
2019-02-25T13:57:08.213Z,103236.06
2019-02-25T13:59:38.794Z,103233.22
2019-02-25T14:02:14.541Z,103239.78
2019-02-25T14:04:43.417Z,103245.91
2019-02-25T14:07:15.094Z,103251.50
2019-02-25T14:09:49.796Z,103249.34
2019-02-25T14:12:20.520Z,103249.34
2019-02-25T14:14:51.222Z,103252.39
2019-02-25T14:17:30.750Z,103250.73
2019-02-25T14:20:01.206Z,103253.00
2019-02-25T14:22:35.658Z,103259.12
2019-02-25T14:25:14.641Z,103257.13
2019-02-25T14:27:49.021Z,103257.13
2019-02-25T14:30:23.028Z,103268.28
2019-02-25T14:32:56.198Z,103266.09
2019-02-25T14:35:29.041Z,103263.13
2019-02-25T14:38:06.738Z,103261.83
2019-02-25T14:40:33.939Z,103262.19
2019-02-25T14:43:06.189Z,103256.52
2019-02-25T14:45:41.459Z,103252.70
2019-02-25T14:48:15.433Z,103258.75
2019-02-25T14:50:45.411Z,103263.08
2019-02-25T14:53:16.049Z,103261.78
2019-02-25T14:55:49.614Z,103259.59
2019-02-25T14:58:22.413Z,103264.67
2019-02-25T15:00:54.749Z,103266.22
2019-02-25T15:03:27.430Z,103266.14
2019-02-25T15:06:10.193Z,103273.28
2019-02-25T15:08:40.396Z,103274.22
2019-02-25T15:11:12.634Z,103274.95
2019-02-25T15:13:44.606Z,103272.59
2019-02-25T15:16:18.026Z,103275.19
2019-02-25T15:18:48.505Z,103270.32
2019-02-25T15:21:22.376Z,103269.27
2019-02-25T15:24:00.530Z,103267.16
2019-02-25T15:26:31.652Z,103266.02
2019-02-25T15:29:04.520Z,103271.08
2019-02-25T15:31:37.190Z,103280.56
2019-02-25T15:34:09.020Z,103272.66
2019-02-25T15:36:40.567Z,103268.97
2019-02-25T15:39:12.027Z,103271.84
2019-02-25T15:41:44.258Z,103265.88
2019-02-25T15:44:22.228Z,103263.26
2019-02-25T15:46:57.877Z,103263.26
2019-02-25T15:49:29.119Z,103269.34
2019-02-25T15:51:59.880Z,103267.51
2019-02-25T15:54:33.315Z,103269.17
2019-02-25T15:57:04.195Z,103272.14
2019-02-25T15:59:34.914Z,103278.09
2019-02-25T16:02:31.591Z,103278.09
2019-02-25T16:05:03.357Z,103275.00
2019-02-25T16:07:35.757Z,103278.66
2019-02-25T16:10:11.877Z,103276.34
2019-02-25T16:12:55.760Z,103279.77
2019-02-25T16:15:30.784Z,103289.09
2019-02-25T16:17:59.429Z,103290.00
2019-02-25T16:20:34.090Z,103290.27
2019-02-25T16:23:07.510Z,103286.23
2019-02-25T16:25:40.350Z,103294.38
2019-02-25T16:28:17.511Z,103293.68
2019-02-25T16:30:49.226Z,103293.59
2019-02-25T16:33:19.959Z,103294.80
2019-02-25T16:35:52.784Z,103296.75
2019-02-25T16:38:27.184Z,103300.09
2019-02-25T16:41:03.125Z,103309.98
2019-02-25T16:43:35.314Z,103310.61
2019-02-25T16:46:07.245Z,103310.61
2019-02-25T16:48:41.087Z,103314.98
2019-02-25T16:51:16.750Z,103321.47
2019-02-25T16:53:50.535Z,103313.89
2019-02-25T16:56:21.162Z,103325.72
2019-02-25T16:58:56.756Z,103329.11
2019-02-25T17:01:29.734Z,103337.21
2019-02-25T17:04:02.476Z,103332.86
2019-02-25T17:07:46.771Z,103336.07
2019-02-25T17:09:15.970Z,103335.91
2019-02-25T17:11:48.428Z,103329.52
2019-02-25T17:14:25.708Z,103329.52
2019-02-25T17:16:57.651Z,103340.02
2019-02-25T17:19:35.747Z,103340.63
2019-02-25T17:22:05.245Z,103339.56
2019-02-25T17:24:37.118Z,103334.84
2019-02-25T17:27:11.572Z,103334.84
2019-02-25T17:29:51.133Z,103346.43
2019-02-25T17:32:23.273Z,103348.98
2019-02-25T17:34:58.648Z,103345.43
2019-02-25T17:37:38.707Z,103342.37
2019-02-25T17:40:08.478Z,103355.96
2019-02-25T17:42:47.288Z,103358.67
2019-02-25T17:45:55.998Z,103358.57
2019-02-25T17:47:58.290Z,103359.20
2019-02-25T17:50:32.589Z,103354.40
2019-02-25T17:53:09.748Z,103353.66
2019-02-25T17:55:42.054Z,103355.05
2019-02-25T17:58:14.789Z,103355.09
2019-02-25T18:00:46.140Z,103344.52
2019-02-25T18:03:19.541Z,103349.69
2019-02-25T18:05:52.002Z,103349.69
2019-02-25T18:08:32.209Z,103337.19
2019-02-25T18:11:03.679Z,103338.16
2019-02-25T18:13:35.204Z,103336.09
2019-02-25T18:16:14.007Z,103340.06
2019-02-25T18:18:47.446Z,103336.02
2019-02-25T18:21:19.938Z,103338.27
2019-02-25T18:23:52.831Z,103337.77
2019-02-25T18:26:44.426Z,103332.96
2019-02-25T18:29:11.725Z,103332.96
2019-02-25T18:31:44.210Z,103337.50
2019-02-25T18:34:18.934Z,103326.48
2019-02-25T18:36:51.053Z,103324.41
2019-02-25T18:39:27.408Z,103330.12
2019-02-25T18:44:38.052Z,103334.68
2019-02-25T18:47:13.812Z,103334.14
2019-02-25T18:49:57.115Z,103337.52
2019-02-25T18:52:29.604Z,103335.69
2019-02-25T18:55:06.230Z,103340.91
2019-02-25T18:57:38.435Z,103337.23
2019-02-25T19:00:12.460Z,103326.53
2019-02-25T19:02:43.158Z,103326.53
2019-02-25T19:05:24.611Z,103337.78
2019-02-25T19:08:03.229Z,103331.58
2019-02-25T19:10:35.224Z,103336.86
2019-02-25T19:13:06.169Z,103334.45
2019-02-25T19:15:52.594Z,103333.62
2019-02-25T19:18:21.021Z,103338.19
2019-02-25T19:20:51.401Z,103343.22
2019-02-25T19:23:24.571Z,103326.41
2019-02-25T19:26:02.471Z,103326.41
2019-02-25T19:28:32.974Z,103340.70
2019-02-25T19:31:08.130Z,103339.63
2019-02-25T19:33:42.481Z,103342.31
2019-02-25T19:36:14.809Z,103342.91
2019-02-25T19:38:48.502Z,103344.75
2019-02-25T19:41:29.545Z,103342.42
2019-02-25T19:43:59.453Z,103341.61
2019-02-25T19:46:31.039Z,103335.20
2019-02-25T19:49:01.692Z,103326.78
2019-02-25T19:51:34.464Z,103325.79
2019-02-25T19:54:06.937Z,103326.22
2019-02-25T19:56:39.709Z,103315.85
2019-02-25T19:59:15.714Z,103317.17
2019-02-25T20:01:54.481Z,103317.17
2019-02-25T20:04:27.273Z,103318.91
2019-02-25T20:06:59.100Z,103314.91
2019-02-25T20:09:33.346Z,103317.09
2019-02-25T20:12:20.392Z,103305.76
2019-02-25T20:14:37.713Z,103302.56
2019-02-25T20:17:10.462Z,103313.06
2019-02-25T20:19:46.252Z,103304.25
2019-02-25T20:22:19.093Z,103307.39
2019-02-25T20:24:52.835Z,103294.07
2019-02-25T20:27:31.663Z,103293.53
2019-02-25T20:30:02.636Z,103294.69
2019-02-25T20:32:40.748Z,103296.25
2019-02-25T20:35:08.535Z,103293.75
2019-02-25T20:37:40.651Z,103291.00
2019-02-25T20:40:17.135Z,103289.30
2019-02-25T20:42:50.957Z,103290.80
2019-02-25T20:45:23.674Z,103289.80
2019-02-25T20:47:57.196Z,103288.23
2019-02-25T20:50:31.787Z,103280.03
2019-02-25T20:53:05.811Z,103279.87
2019-02-25T20:55:40.071Z,103279.08
2019-02-25T20:58:20.861Z,103276.11
2019-02-25T21:00:54.184Z,103275.98
2019-02-25T21:03:25.407Z,103271.25
2019-02-25T21:05:57.033Z,103263.50
2019-02-25T21:08:29.030Z,103261.39
2019-02-25T21:11:02.453Z,103255.09
2019-02-25T21:13:35.960Z,103257.92
2019-02-25T21:16:10.386Z,103254.57
2019-02-25T21:18:52.940Z,103257.86
2019-02-25T21:21:28.100Z,103254.36
2019-02-25T21:24:04.215Z,103251.56
2019-02-25T21:26:36.168Z,103254.74
2019-02-25T21:29:09.821Z,103260.33
2019-02-25T21:31:43.184Z,103268.32
2019-02-25T21:34:15.172Z,103267.46
2019-02-25T21:36:46.697Z,103266.26
2019-02-25T21:39:19.016Z,103269.36
2019-02-25T21:42:06.223Z,103263.66
2019-02-25T21:44:36.599Z,103269.34
2019-02-25T21:47:06.354Z,103268.97
2019-02-25T21:49:40.510Z,103262.09
2019-02-25T21:52:18.309Z,103261.60
2019-02-25T21:54:48.932Z,103255.03
2019-02-25T21:57:21.762Z,103255.03
2019-02-25T21:59:54.697Z,103259.89
2019-02-25T22:02:28.247Z,103265.77
2019-02-25T22:05:10.170Z,103263.23
2019-02-25T22:07:41.456Z,103266.55
2019-02-25T22:10:14.371Z,103259.41
2019-02-25T22:12:44.797Z,103267.31
2019-02-25T22:15:17.162Z,103271.03
2019-02-25T22:17:52.356Z,103272.55
2019-02-25T22:20:22.477Z,103278.94
2019-02-25T22:22:57.454Z,103276.09
2019-02-25T22:25:34.516Z,103282.21
2019-02-25T22:28:05.257Z,103285.92
2019-02-25T22:30:42.965Z,103292.03
2019-02-25T22:33:27.024Z,103291.13
2019-02-25T22:35:51.823Z,103294.53
2019-02-25T22:38:25.227Z,103291.98
2019-02-25T22:40:57.592Z,103292.24
2019-02-25T22:43:28.397Z,103287.89
2019-02-25T22:46:07.263Z,103286.36
2019-02-25T22:48:38.074Z,103279.99
2019-02-25T22:51:09.801Z,103273.13
2019-02-25T22:53:43.883Z,103284.97
2019-02-25T22:56:15.919Z,103283.28
2019-02-25T22:58:51.366Z,103281.11
2019-02-25T23:01:20.906Z,103275.48
2019-02-25T23:03:55.023Z,103277.90
2019-02-25T23:06:28.954Z,103286.80
2019-02-25T23:08:59.393Z,103288.54
2019-02-25T23:11:29.948Z,103291.56
2019-02-25T23:14:00.266Z,103283.91
2019-02-25T23:16:48.101Z,103285.62
2019-02-25T23:19:05.385Z,103283.33
2019-02-25T23:21:38.336Z,103282.96
2019-02-25T23:24:08.737Z,103282.33
2019-02-25T23:26:39.207Z,103272.21
2019-02-25T23:29:12.103Z,103268.39
2019-02-25T23:31:43.456Z,103280.36
2019-02-25T23:34:15.260Z,103270.86
2019-02-25T23:36:49.781Z,103279.23
2019-02-25T23:39:23.332Z,103269.39
2019-02-25T23:41:54.691Z,103273.93
2019-02-25T23:44:25.107Z,103274.91
2019-02-25T23:47:00.182Z,103276.83
2019-02-25T23:49:30.710Z,103273.75
2019-02-25T23:52:02.514Z,103274.37
2019-02-25T23:54:35.502Z,103272.85
2019-02-25T23:57:09.461Z,103274.91
